Time;durP1;ratioP1;P1;durP2;ratioP2;P2;SDS_P1;SDS_P2;PMS_P1;PMS_P2;Temp;Humidity;BMP_temperature;BMP_pressure;BME280_temperature;BME280_humidity;BME280_pressure;Samples;Min_cycle;Max_cycle;Signal;HPM_P1;HPM_P2
2023/01/02 00:00:05;;;;;;;36.70;12.00;;;;;;;11.49;71.15;101056.06;107260;1251;138875;-74
2023/01/02 00:02:30;;;;;;;27.20;10.40;;;;;;;11.49;71.14;101057.71;107421;1254;98967;-74
2023/01/02 00:04:56;;;;;;;24.90;11.00;;;;;;;11.47;71.12;101049.91;107312;1240;138806;-72
2023/01/02 00:07:21;;;;;;;28.40;10.30;;;;;;;11.46;71.14;101051.02;107399;1252;98738;-72
2023/01/02 00:09:46;;;;;;;24.20;9.00;;;;;;;11.45;71.14;101057.49;107326;1240;98973;-72
2023/01/02 00:12:11;;;;;;;27.80;10.20;;;;;;;11.44;71.23;101066.33;107193;1254;138818;-72
2023/01/02 00:14:37;;;;;;;24.60;9.90;;;;;;;11.43;71.21;101065.27;107258;1255;98982;-73
2023/01/02 00:17:02;;;;;;;23.70;11.00;;;;;;;11.43;71.31;101065.09;107317;1243;138698;-73
2023/01/02 00:19:27;;;;;;;27.30;11.40;;;;;;;11.43;71.30;101066.91;107351;1246;99026;-73
2023/01/02 00:21:53;;;;;;;25.00;9.20;;;;;;;11.41;71.32;101063.40;107361;1249;98815;-73
2023/01/02 00:24:18;;;;;;;29.10;9.80;;;;;;;11.40;71.41;101061.45;107348;1249;138713;-73
2023/01/02 00:26:43;;;;;;;25.80;9.70;;;;;;;11.39;71.37;101060.39;107386;1242;98985;-73
2023/01/02 00:29:09;;;;;;;24.60;9.50;;;;;;;11.40;71.45;101059.48;107249;1256;139931;-74
2023/01/02 00:31:34;;;;;;;26.40;10.10;;;;;;;11.42;71.53;101062.81;107211;1253;99034;-73
2023/01/02 00:33:59;;;;;;;25.20;10.10;;;;;;;11.43;71.53;101061.51;107407;1242;100412;-74
2023/01/02 00:36:26;;;;;;;23.10;9.80;;;;;;;11.42;71.50;101057.08;107275;1247;99093;-73
2023/01/02 00:38:55;;;;;;;19.70;8.80;;;;;;;11.42;71.43;101057.60;107323;1250;99488;-73
2023/01/02 00:41:20;;;;;;;27.50;9.40;;;;;;;11.43;71.47;101062.41;107200;1247;138663;-73
2023/01/02 00:43:46;;;;;;;22.50;10.00;;;;;;;11.43;71.58;101065.09;107412;1235;97869;-73
2023/01/02 00:46:11;;;;;;;27.60;9.30;;;;;;;11.45;71.56;101063.04;107181;1251;139154;-73
2023/01/02 00:48:36;;;;;;;34.90;9.70;;;;;;;11.46;71.54;101056.91;107242;1245;99006;-73
2023/01/02 00:51:01;;;;;;;23.60;9.50;;;;;;;11.46;71.59;101055.69;107427;1243;99300;-73
2023/01/02 00:53:27;;;;;;;22.60;9.50;;;;;;;11.45;71.52;101057.52;107334;1238;138823;-73
2023/01/02 00:55:52;;;;;;;24.60;9.10;;;;;;;11.43;71.59;101059.02;107443;1251;97749;-73
2023/01/02 00:58:17;;;;;;;26.60;9.30;;;;;;;11.43;71.64;101060.98;107289;1249;138826;-73
2023/01/02 01:00:42;;;;;;;25.30;10.30;;;;;;;11.43;71.51;101061.35;107428;1242;98979;-74
2023/01/02 01:03:08;;;;;;;25.60;9.80;;;;;;;11.45;71.59;101057.52;107292;1239;97914;-73
2023/01/02 01:05:33;;;;;;;25.00;9.60;;;;;;;11.46;71.62;101059.09;107216;1250;139004;-73
2023/01/02 01:07:58;;;;;;;28.10;9.20;;;;;;;11.46;71.69;101064.80;107331;1251;99056;-73
2023/01/02 01:10:25;;;;;;;32.20;10.60;;;;;;;11.45;71.60;101067.89;107337;1242;139245;-74
2023/01/02 01:12:51;;;;;;;22.30;9.90;;;;;;;11.42;71.67;101061.36;107326;1254;98947;-73
2023/01/02 01:15:16;;;;;;;27.50;10.30;;;;;;;11.42;71.71;101063.54;107361;1251;99089;-74
2023/01/02 01:17:42;;;;;;;26.80;9.20;;;;;;;11.42;71.76;101061.75;107242;1247;139117;-73
2023/01/02 01:20:08;;;;;;;23.60;8.90;;;;;;;11.41;71.89;101056.40;107300;1252;99047;-73
2023/01/02 01:22:33;;;;;;;19.70;9.30;;;;;;;11.41;71.88;101062.66;107302;1252;139204;-74
2023/01/02 01:24:59;;;;;;;23.80;9.50;;;;;;;11.41;71.88;101064.48;107434;1251;99135;-73
2023/01/02 01:27:24;;;;;;;28.50;9.50;;;;;;;11.36;71.85;101068.75;107349;1242;99238;-73
2023/01/02 01:29:49;;;;;;;23.10;9.40;;;;;;;11.34;71.92;101066.15;107332;1247;139834;-72
2023/01/02 01:32:15;;;;;;;26.90;10.60;;;;;;;11.33;71.96;101066.02;107399;1247;99017;-73
2023/01/02 01:34:41;;;;;;;25.70;8.90;;;;;;;11.32;71.94;101061.77;107239;1249;139146;-72
2023/01/02 01:37:06;;;;;;;22.30;8.90;;;;;;;11.30;71.89;101056.30;107220;1250;106988;-72
2023/01/02 01:39:31;;;;;;;28.10;10.30;;;;;;;11.27;72.02;101049.45;107360;1227;99072;-72
2023/01/02 01:42:00;;;;;;;27.40;10.80;;;;;;;11.26;72.01;101036.23;107387;1230;139025;-72
2023/01/02 01:44:52;;;;;;;27.70;9.90;;;;;;;11.27;72.11;101035.66;107305;1254;99044;-72
2023/01/02 01:47:39;;;;;;;21.60;9.30;;;;;;;11.28;72.22;101030.46;107282;1253;138882;-73
2023/01/02 01:50:14;;;;;;;22.50;9.20;;;;;;;11.25;72.22;101025.92;107432;1240;99621;-72
2023/01/02 01:53:09;;;;;;;33.40;11.00;;;;;;;11.22;72.18;101014.21;107320;1251;138916;-72
2023/01/02 01:55:40;;;;;;;26.40;9.40;;;;;;;11.21;72.24;101014.98;107318;1245;112936;-72
2023/01/02 01:58:10;;;;;;;26.50;10.60;;;;;;;11.21;72.32;101015.17;107152;1254;139159;-72
2023/01/02 02:00:38;;;;;;;24.30;8.90;;;;;;;11.19;72.34;101012.91;107324;1251;106595;-72
2023/01/02 02:03:09;;;;;;;24.20;9.20;;;;;;;11.16;72.36;101004.44;107325;1250;99172;-72
2023/01/02 02:05:35;;;;;;;20.90;9.00;;;;;;;11.14;72.39;100999.88;107110;1247;141370;-72
2023/01/02 02:08:26;;;;;;;20.80;8.60;;;;;;;11.11;72.33;100996.45;107434;1234;99202;-72
2023/01/02 02:10:52;;;;;;;24.50;9.70;;;;;;;11.08;72.41;100993.52;107240;1237;139411;-72
2023/01/02 02:13:18;;;;;;;29.70;9.80;;;;;;;11.05;72.41;100995.60;107483;1253;99134;-72
2023/01/02 02:16:05;;;;;;;23.90;8.40;;;;;;;11.02;72.36;100990.34;107343;1245;98980;-72
2023/01/02 02:18:52;;;;;;;21.50;8.70;;;;;;;10.98;72.42;100987.65;107327;1249;112267;-72
2023/01/02 02:21:29;;;;;;;25.60;9.30;;;;;;;10.97;72.59;100983.93;107356;1252;99330;-72
2023/01/02 02:24:19;;;;;;;20.70;9.30;;;;;;;10.97;72.64;100985.20;107231;1244;140965;-72
2023/01/02 02:26:59;;;;;;;25.90;9.00;;;;;;;10.97;72.60;100981.24;107338;1247;100264;-72
2023/01/02 02:29:46;;;;;;;23.50;9.20;;;;;;;10.94;72.64;100976.17;107261;1245;139184;-72
2023/01/02 02:32:27;;;;;;;26.70;8.70;;;;;;;10.94;72.68;100952.58;107352;1250;112401;-72
2023/01/02 02:35:51;;;;;;;19.60;7.00;;;;;;;10.93;72.79;100958.70;107267;1251;138854;-72
2023/01/02 02:38:30;;;;;;;29.40;8.60;;;;;;;10.88;72.68;100959.81;107202;1241;107980;-72
2023/01/02 02:41:14;;;;;;;28.40;10.00;;;;;;;10.87;72.86;100953.59;107220;1247;138914;-72
2023/01/02 02:43:54;;;;;;;22.60;8.60;;;;;;;10.85;72.86;100943.66;107360;1248;100529;-72
2023/01/02 02:46:41;;;;;;;24.30;9.20;;;;;;;10.82;73.07;100945.02;107206;1245;139142;-73
2023/01/02 02:49:14;;;;;;;22.90;9.20;;;;;;;10.80;72.95;100943.49;107352;1248;99762;-73
2023/01/02 02:52:06;;;;;;;32.10;9.00;;;;;;;10.78;73.18;100934.65;107395;1250;108293;-73
2023/01/02 02:54:47;;;;;;;20.20;8.70;;;;;;;10.74;73.11;100934.08;107331;1249;99044;-73
2023/01/02 02:57:14;;;;;;;21.60;8.80;;;;;;;10.71;73.14;100937.95;107377;1252;99095;-73
2023/01/02 02:59:40;;;;;;;22.00;8.70;;;;;;;10.70;73.35;100939.77;107199;1247;138853;-73
2023/01/02 03:02:06;;;;;;;19.50;9.10;;;;;;;10.71;73.33;100939.74;107336;1244;99284;-73
2023/01/02 03:04:31;;;;;;;23.70;8.90;;;;;;;10.72;73.54;100933.26;107107;1248;139041;-73
2023/01/02 03:07:06;;;;;;;25.40;8.40;;;;;;;10.72;73.46;100925.02;107329;1245;99095;-73
2023/01/02 03:10:10;;;;;;;29.80;10.20;;;;;;;10.73;73.58;100927.48;107315;1249;113741;-73
2023/01/02 03:12:52;;;;;;;17.90;8.40;;;;;;;10.73;73.60;100922.83;107402;1234;100648;-72
2023/01/02 03:15:26;;;;;;;23.40;9.90;;;;;;;10.72;73.73;100914.65;107427;1243;106162;-73
2023/01/02 03:18:17;;;;;;;21.20;8.40;;;;;;;10.72;73.74;100912.69;107283;1251;139050;-73
2023/01/02 03:20:59;;;;;;;23.80;9.40;;;;;;;10.71;73.72;100910.23;107295;1247;99002;-73
2023/01/02 03:23:28;;;;;;;21.90;7.90;;;;;;;10.72;73.96;100914.81;107314;1243;138879;-73
2023/01/02 03:25:56;;;;;;;28.20;9.70;;;;;;;10.73;73.99;100905.33;107302;1251;101442;-73
2023/01/02 03:28:25;;;;;;;25.30;9.10;;;;;;;10.74;73.94;100904.05;107332;1234;139041;-73
2023/01/02 03:30:54;;;;;;;24.70;9.00;;;;;;;10.74;74.16;100907.77;107343;1249;99070;-73
2023/01/02 03:33:25;;;;;;;21.10;8.60;;;;;;;10.74;73.99;100898.33;107502;1251;98993;-73
2023/01/02 03:35:55;;;;;;;24.90;10.00;;;;;;;10.75;74.11;100902.93;107262;1251;138810;-72
2023/01/02 03:38:26;;;;;;;26.60;9.10;;;;;;;10.75;74.15;100897.21;107448;1251;101173;-72
2023/01/02 03:41:04;;;;;;;19.80;9.70;;;;;;;10.73;74.11;100896.55;107241;1243;139449;-72
2023/01/02 03:43:32;;;;;;;22.50;9.10;;;;;;;10.72;74.22;100888.23;107323;1243;99009;-72
2023/01/02 03:46:12;;;;;;;24.10;9.70;;;;;;;10.71;74.32;100886.82;107372;1249;99553;-72
2023/01/02 03:48:55;;;;;;;29.20;10.00;;;;;;;10.70;74.33;100888.64;107221;1247;113370;-72
2023/01/02 03:51:20;;;;;;;23.70;9.20;;;;;;;10.68;74.29;100893.02;107221;1251;98972;-72
2023/01/02 03:53:48;;;;;;;20.70;9.80;;;;;;;10.66;74.36;100893.63;107127;1246;139933;-72
2023/01/02 03:57:01;;;;;;;23.70;9.50;;;;;;;10.66;74.41;100890.41;107385;1250;99559;-72
2023/01/02 03:59:38;;;;;;;22.50;9.20;;;;;;;10.64;74.33;100886.73;107208;1247;138695;-72
2023/01/02 04:02:41;;;;;;;27.70;9.70;;;;;;;10.62;74.56;100886.11;107215;1254;113035;-72
2023/01/02 04:05:19;;;;;;;26.40;8.50;;;;;;;10.61;74.53;100880.09;107288;1254;138863;-72
2023/01/02 04:07:58;;;;;;;21.80;8.00;;;;;;;10.60;74.63;100866.36;107279;1235;108374;-72
2023/01/02 04:10:26;;;;;;;27.70;9.90;;;;;;;10.58;74.59;100869.10;107304;1238;139022;-72
2023/01/02 04:12:53;;;;;;;20.60;9.00;;;;;;;10.56;74.67;100860.61;107276;1253;98910;-72
2023/01/02 04:15:23;;;;;;;20.70;9.60;;;;;;;10.55;74.71;100867.27;107289;1251;111761;-72
2023/01/02 04:17:58;;;;;;;23.90;9.80;;;;;;;10.52;74.71;100863.11;107123;1254;139785;-72
2023/01/02 04:20:31;;;;;;;17.10;8.50;;;;;;;10.49;74.64;100859.12;107392;1247;108286;-73
2023/01/02 04:23:01;;;;;;;25.60;9.00;;;;;;;10.46;74.74;100856.91;107341;1249;139115;-73
2023/01/02 04:25:38;;;;;;;22.80;10.60;;;;;;;10.45;74.83;100854.45;107320;1238;99181;-73
2023/01/02 04:28:23;;;;;;;18.50;8.90;;;;;;;10.44;74.79;100848.97;107289;1240;112512;-73
2023/01/02 04:30:54;;;;;;;19.60;9.00;;;;;;;10.43;74.80;100849.73;107297;1238;99177;-73
2023/01/02 04:33:21;;;;;;;24.40;9.80;;;;;;;10.42;74.84;100842.06;107370;1252;107335;-73
2023/01/02 04:35:47;;;;;;;25.80;9.90;;;;;;;10.43;74.80;100844.52;107225;1242;139057;-73
2023/01/02 04:38:12;;;;;;;22.60;9.80;;;;;;;10.42;74.93;100839.02;107302;1245;99438;-73
2023/01/02 04:40:37;;;;;;;20.90;10.00;;;;;;;10.42;74.99;100839.22;107238;1235;139839;-71
2023/01/02 04:43:13;;;;;;;22.60;10.00;;;;;;;10.43;75.00;100837.23;107317;1249;99093;-71
2023/01/02 04:45:38;;;;;;;19.70;10.10;;;;;;;10.44;74.94;100835.38;107374;1249;98977;-71
2023/01/02 04:48:04;;;;;;;19.60;9.80;;;;;;;10.45;74.94;100836.23;107186;1246;140119;-71
2023/01/02 04:50:29;;;;;;;26.60;10.30;;;;;;;10.45;75.05;100829.98;107296;1237;99067;-71
2023/01/02 04:52:55;;;;;;;28.10;10.60;;;;;;;10.44;75.10;100815.91;107235;1253;139658;-71
2023/01/02 04:55:20;;;;;;;22.70;9.40;;;;;;;10.42;74.99;100810.80;107389;1242;100136;-71
2023/01/02 04:57:45;;;;;;;18.80;9.90;;;;;;;10.40;75.05;100803.23;107297;1245;99022;-71
2023/01/02 05:00:11;;;;;;;33.30;11.00;;;;;;;10.39;74.95;100802.02;107156;1237;139121;-72
2023/01/02 05:02:38;;;;;;;29.10;11.20;;;;;;;10.36;74.97;100804.99;107281;1237;99154;-72
2023/01/02 05:05:04;;;;;;;34.30;13.50;;;;;;;10.33;75.00;100812.98;107112;1245;139200;-71
2023/01/02 05:07:29;;;;;;;36.00;13.30;;;;;;;10.31;75.00;100814.14;107212;1244;99004;-71
2023/01/02 05:09:54;;;;;;;31.90;12.70;;;;;;;10.29;74.96;100809.20;107335;1245;99309;-72
2023/01/02 05:12:20;;;;;;;32.10;11.90;;;;;;;10.28;74.99;100805.70;107272;1243;139060;-71
2023/01/02 05:14:45;;;;;;;33.60;13.50;;;;;;;10.27;75.08;100803.21;107355;1243;99003;-71
2023/01/02 05:17:10;;;;;;;29.60;11.60;;;;;;;10.27;75.12;100795.17;107332;1237;138987;-71
2023/01/02 05:19:35;;;;;;;24.50;10.70;;;;;;;10.28;75.11;100792.31;107298;1247;99003;-71
2023/01/02 05:24:45;;;;;;;22.60;10.90;;;;;;;10.27;75.02;100789.45;107283;1241;112442;-71
2023/01/02 05:27:10;;;;;;;25.90;10.20;;;;;;;10.27;75.03;100783.92;107274;1253;99055;-71
2023/01/02 05:29:35;;;;;;;23.40;9.50;;;;;;;10.28;75.03;100783.18;107266;1245;139066;-71
2023/01/02 05:32:01;;;;;;;23.70;11.00;;;;;;;10.27;75.16;100779.98;107271;1246;97860;-71
2023/01/02 05:34:26;;;;;;;22.30;8.50;;;;;;;10.29;75.12;100782.79;107243;1229;139503;-72
2023/01/02 05:36:51;;;;;;;18.60;9.60;;;;;;;10.29;75.08;100780.45;107369;1243;98975;-72
2023/01/02 05:39:17;;;;;;;21.40;9.40;;;;;;;10.30;75.07;100781.83;107337;1253;99186;-72
2023/01/02 05:41:42;;;;;;;21.50;9.30;;;;;;;10.32;75.06;100790.33;107111;1254;138747;-72
2023/01/02 05:44:09;;;;;;;24.50;9.80;;;;;;;10.32;75.03;100783.71;107328;1237;99054;-72
2023/01/02 05:46:36;;;;;;;22.50;9.40;;;;;;;10.32;75.06;100780.15;107182;1243;138973;-71
2023/01/02 05:49:06;;;;;;;17.30;8.60;;;;;;;10.33;75.13;100783.68;107361;1245;99187;-72
2023/01/02 05:51:32;;;;;;;22.80;8.40;;;;;;;10.34;75.17;100773.27;107229;1246;113565;-72
2023/01/02 05:53:57;;;;;;;22.20;10.10;;;;;;;10.35;75.03;100768.98;107212;1237;139583;-72
2023/01/02 05:56:23;;;;;;;21.80;9.20;;;;;;;10.35;75.01;100778.42;107345;1253;99053;-72
2023/01/02 05:58:49;;;;;;;22.40;9.40;;;;;;;10.35;75.05;100779.31;107399;1243;139137;-72
2023/01/02 06:01:20;;;;;;;26.50;10.70;;;;;;;10.36;75.05;100780.90;107251;1235;99067;-72
2023/01/02 06:03:52;;;;;;;20.70;9.70;;;;;;;10.35;74.97;100783.61;107334;1250;99667;-72
2023/01/02 06:06:20;;;;;;;21.40;9.90;;;;;;;10.36;74.97;100781.42;107273;1229;138822;-72
2023/01/02 06:08:46;;;;;;;22.90;10.50;;;;;;;10.36;74.91;100783.55;107222;1253;99006;-72
2023/01/02 06:11:11;;;;;;;30.70;12.00;;;;;;;10.43;75.12;100780.94;107208;1245;138914;-72
2023/01/02 06:13:37;;;;;;;21.50;9.70;;;;;;;10.51;75.15;100777.58;107348;1247;98962;-72
2023/01/02 06:16:04;;;;;;;23.00;10.00;;;;;;;10.53;75.10;100779.80;107263;1251;97898;-72
2023/01/02 06:18:31;;;;;;;24.50;10.70;;;;;;;10.58;75.11;100779.42;107116;1247;139022;-73
2023/01/02 06:21:18;;;;;;;23.70;9.50;;;;;;;10.65;75.25;100780.56;107335;1237;98962;-71
2023/01/02 06:23:44;;;;;;;24.00;10.50;;;;;;;10.73;75.25;100781.63;107194;1237;138881;-73
2023/01/02 06:26:15;;;;;;;31.10;10.50;;;;;;;10.75;74.98;100782.11;107292;1246;99197;-72
2023/01/02 06:28:41;;;;;;;19.20;9.70;;;;;;;10.75;74.98;100782.12;107301;1235;140124;-71
2023/01/02 06:31:09;;;;;;;19.00;8.90;;;;;;;10.77;75.09;100783.80;107309;1245;99153;-73
2023/01/02 06:33:35;;;;;;;15.10;7.40;;;;;;;10.77;74.89;100779.88;107376;1245;97825;-74
2023/01/02 06:36:04;;;;;;;25.60;9.00;;;;;;;10.75;74.80;100773.34;107481;1243;138925;-73
2023/01/02 06:38:30;;;;;;;37.40;9.90;;;;;;;10.74;74.95;100772.50;107448;1246;97664;-73
2023/01/02 06:40:58;;;;;;;20.30;8.30;;;;;;;10.74;74.73;100774.81;108764;1244;138895;-71
2023/01/02 06:43:25;;;;;;;35.50;9.10;;;;;;;10.76;74.76;100772.80;108765;1243;97189;-71
2023/01/02 06:45:52;;;;;;;16.30;9.30;;;;;;;10.74;74.70;100772.66;108720;1252;97315;-73
2023/01/02 06:48:18;;;;;;;35.30;9.30;;;;;;;10.73;74.70;100771.44;108643;1232;139725;-73
2023/01/02 06:50:45;;;;;;;32.20;8.90;;;;;;;10.75;74.61;100769.25;108744;1242;98576;-75
2023/01/02 06:53:12;;;;;;;18.20;8.00;;;;;;;10.78;74.86;100769.11;108199;1239;139036;-73
2023/01/02 06:55:38;;;;;;;30.00;8.30;;;;;;;10.82;74.72;100767.54;107401;1244;98995;-75
2023/01/02 06:58:03;;;;;;;34.10;9.00;;;;;;;10.84;74.72;100772.23;107264;1246;99116;-74
2023/01/02 07:00:29;;;;;;;72.50;10.90;;;;;;;10.85;74.61;100776.14;107316;1243;138993;-71
2023/01/02 07:02:54;;;;;;;38.20;10.10;;;;;;;10.91;74.58;100780.55;107205;1254;102644;-73
2023/01/02 07:05:20;;;;;;;23.60;7.60;;;;;;;10.96;74.79;100781.05;107244;1243;139531;-73
2023/01/02 07:07:45;;;;;;;50.90;10.00;;;;;;;11.00;74.62;100780.34;107416;1251;99165;-72
2023/01/02 07:10:13;;;;;;;30.70;7.90;;;;;;;10.99;74.36;100775.88;107312;1235;101096;-73
2023/01/02 07:12:39;;;;;;;22.40;7.70;;;;;;;10.99;74.47;100780.00;107117;1246;139061;-72
2023/01/02 07:15:05;;;;;;;37.70;9.30;;;;;;;10.97;74.44;100777.98;107397;1251;99433;-71
2023/01/02 07:17:31;;;;;;;23.80;7.90;;;;;;;10.97;74.39;100774.02;107166;1246;138924;-72
2023/01/02 07:19:57;;;;;;;17.30;8.40;;;;;;;10.96;74.37;100772.45;107268;1243;99124;-71
2023/01/02 07:22:22;;;;;;;14.70;7.10;;;;;;;10.94;74.01;100773.77;107239;1245;139211;-73
2023/01/02 07:24:48;;;;;;;30.10;8.50;;;;;;;10.93;74.20;100770.24;107237;1229;112445;-72
2023/01/02 07:27:13;;;;;;;21.00;7.50;;;;;;;10.95;74.19;100773.94;107330;1244;99350;-72
2023/01/02 07:29:38;;;;;;;35.20;9.20;;;;;;;10.95;74.04;100772.13;107323;1244;138948;-72
2023/01/02 07:32:04;;;;;;;23.00;8.40;;;;;;;10.96;74.10;100765.48;107326;1236;99022;-72
2023/01/02 07:34:29;;;;;;;61.50;11.60;;;;;;;10.99;74.04;100767.86;107331;1243;139141;-72
2023/01/02 07:36:54;;;;;;;22.30;7.70;;;;;;;11.04;73.96;100764.93;107293;1246;98975;-71
2023/01/02 07:39:21;;;;;;;27.50;7.70;;;;;;;11.06;73.87;100764.31;107375;1252;98968;-72
2023/01/02 07:41:46;;;;;;;29.30;8.50;;;;;;;11.10;73.84;100767.73;107349;1243;138799;-72
2023/01/02 07:44:12;;;;;;;16.50;7.80;;;;;;;11.12;73.76;100769.09;107278;1243;100216;-73
2023/01/02 07:46:37;;;;;;;33.90;9.70;;;;;;;11.13;73.85;100760.63;107045;1244;139111;-73
2023/01/02 07:49:02;;;;;;;40.90;10.20;;;;;;;11.18;73.71;100760.58;107330;1243;98933;-75
2023/01/02 07:51:28;;;;;;;18.40;7.80;;;;;;;11.22;73.74;100761.82;107277;1252;97903;-75
2023/01/02 07:53:54;;;;;;;37.20;8.70;;;;;;;11.29;73.57;100759.54;107293;1244;139335;-75
2023/01/02 07:56:20;;;;;;;20.50;7.90;;;;;;;11.31;73.51;100760.52;107589;1242;100074;-72
2023/01/02 07:58:45;;;;;;;31.90;7.80;;;;;;;11.34;73.53;100761.66;107152;1229;139975;-73
2023/01/02 08:01:12;;;;;;;56.00;8.70;;;;;;;11.40;73.49;100756.39;107305;1230;97924;-73
2023/01/02 08:03:37;;;;;;;118.00;18.70;;;;;;;11.44;73.44;100755.88;107268;1237;106044;-73
2023/01/02 08:06:05;;;;;;;40.30;9.20;;;;;;;11.43;73.23;100764.50;107065;1251;139565;-73
2023/01/02 08:08:30;;;;;;;27.40;7.50;;;;;;;11.41;73.20;100760.27;107243;1232;99047;-74
2023/01/02 08:10:56;;;;;;;123.70;15.40;;;;;;;11.38;73.05;100775.61;107146;1242;139048;-73
2023/01/02 08:13:21;;;;;;;80.90;14.00;;;;;;;11.38;73.13;100778.83;107291;1246;99107;-73
2023/01/02 08:15:46;;;;;;;27.90;7.50;;;;;;;11.41;73.01;100778.02;107341;1245;97776;-73
2023/01/02 08:18:11;;;;;;;60.20;10.70;;;;;;;11.42;72.90;100778.48;107218;1235;139598;-73
2023/01/02 08:20:37;;;;;;;88.40;14.90;;;;;;;11.45;72.95;100775.30;107244;1236;99084;-73
2023/01/02 08:23:02;;;;;;;80.50;14.50;;;;;;;11.52;72.93;100775.52;107202;1251;139310;-73
2023/01/02 08:25:27;;;;;;;21.40;7.30;;;;;;;11.57;72.94;100777.27;107237;1245;99088;-73
2023/01/02 08:27:53;;;;;;;14.90;6.40;;;;;;;11.58;72.71;100779.71;107496;1243;98970;-72
2023/01/02 08:30:18;;;;;;;15.00;6.10;;;;;;;11.59;72.67;100777.35;107209;1243;138824;-71
2023/01/02 08:32:43;;;;;;;14.90;5.70;;;;;;;11.63;72.69;100775.92;107393;1243;102731;-72
2023/01/02 08:35:09;;;;;;;87.50;10.50;;;;;;;11.67;72.63;100774.13;107296;1242;139004;-73
2023/01/02 08:37:34;;;;;;;82.40;13.10;;;;;;;11.72;72.72;100771.92;107240;1243;98983;-74
2023/01/02 08:39:59;;;;;;;50.10;11.60;;;;;;;11.78;72.33;100767.56;107340;1246;99213;-74
2023/01/02 08:42:24;;;;;;;113.70;16.40;;;;;;;11.81;72.53;100764.55;107049;1237;141248;-73
2023/01/02 08:44:50;;;;;;;38.60;9.70;;;;;;;11.85;72.43;100763.83;107481;1235;99092;-72
2023/01/02 08:47:15;;;;;;;19.50;7.90;;;;;;;11.86;72.22;100769.33;107214;1237;139113;-73
2023/01/02 08:49:41;;;;;;;20.50;8.00;;;;;;;11.87;72.33;100771.42;107311;1237;98960;-72
2023/01/02 08:52:06;;;;;;;30.20;8.00;;;;;;;11.93;72.30;100776.52;107387;1229;100620;-72
2023/01/02 08:54:32;;;;;;;60.30;12.20;;;;;;;11.99;72.32;100782.33;107219;1243;138938;-73
2023/01/02 08:56:57;;;;;;;22.10;8.00;;;;;;;12.04;72.22;100785.69;107264;1239;99518;-72
2023/01/02 08:59:24;;;;;;;32.10;7.50;;;;;;;12.06;72.10;100783.98;107231;1231;138844;-73
2023/01/02 09:01:50;;;;;;;18.10;6.50;;;;;;;12.09;72.12;100777.02;107335;1237;98967;-72
2023/01/02 09:04:15;;;;;;;41.00;10.00;;;;;;;12.09;71.86;100778.10;107262;1246;99051;-73
2023/01/02 09:06:42;;;;;;;22.50;6.80;;;;;;;12.06;71.88;100770.90;107175;1239;139068;-73
2023/01/02 09:09:07;;;;;;;24.80;6.90;;;;;;;12.08;71.99;100770.80;107352;1237;100374;-72
2023/01/02 09:11:36;;;;;;;46.40;9.00;;;;;;;12.06;71.66;100774.69;107178;1237;139221;-72
2023/01/02 09:14:02;;;;;;;136.70;16.00;;;;;;;12.03;71.66;100769.61;107291;1229;99192;-72
2023/01/02 09:16:28;;;;;;;24.10;7.40;;;;;;;12.01;71.59;100778.27;107051;1239;139775;-72
2023/01/02 09:18:56;;;;;;;161.20;17.60;;;;;;;11.99;71.60;100784.84;107372;1233;99218;-72
2023/01/02 09:21:21;;;;;;;120.30;14.00;;;;;;;11.99;71.65;100791.11;107528;1236;113541;-72
2023/01/02 09:23:47;;;;;;;241.50;34.80;;;;;;;11.98;71.58;100788.10;107068;1235;139481;-71
2023/01/02 09:26:12;;;;;;;172.30;23.60;;;;;;;11.98;71.45;100790.23;107348;1236;98961;-71
2023/01/02 09:28:38;;;;;;;103.80;17.50;;;;;;;11.97;71.44;100793.88;107177;1235;139970;-72
2023/01/02 09:31:08;;;;;;;68.60;12.00;;;;;;;11.97;71.43;100793.31;107288;1238;99043;-72
2023/01/02 09:33:34;;;;;;;42.90;9.70;;;;;;;11.99;71.51;100797.17;107210;1251;100374;-73
2023/01/02 09:36:01;;;;;;;97.30;13.50;;;;;;;12.02;71.52;100799.53;107314;1228;139024;-72
2023/01/02 09:38:26;;;;;;;40.80;9.60;;;;;;;12.07;71.38;100802.75;107235;1247;100553;-72
2023/01/02 09:40:53;;;;;;;134.30;16.10;;;;;;;12.11;71.45;100807.05;107190;1238;139296;-72
2023/01/02 09:43:32;;;;;;;80.10;12.80;;;;;;;12.17;71.51;100800.67;107278;1246;98922;-72
2023/01/02 09:46:00;;;;;;;51.20;10.20;;;;;;;12.22;71.37;100795.00;107305;1246;106543;-72
2023/01/02 09:48:33;;;;;;;20.00;7.60;;;;;;;12.25;71.33;100793.27;107236;1244;140123;-72
2023/01/02 09:51:00;;;;;;;35.60;8.90;;;;;;;12.30;71.36;100785.14;107363;1236;99440;-73
2023/01/02 09:53:26;;;;;;;18.10;8.20;;;;;;;12.36;71.21;100783.80;107277;1251;139085;-71
2023/01/02 09:56:12;;;;;;;17.20;8.10;;;;;;;12.39;71.32;100778.79;107416;1235;99029;-71
2023/01/02 09:58:52;;;;;;;28.50;8.80;;;;;;;12.45;71.21;100779.77;107299;1234;140141;-72
2023/01/02 10:01:51;;;;;;;20.70;8.00;;;;;;;12.51;71.09;100775.90;107367;1236;99044;-73
2023/01/02 10:04:23;;;;;;;16.70;6.80;;;;;;;12.55;71.02;100768.86;107450;1237;98777;-72
2023/01/02 10:07:18;;;;;;;29.60;8.40;;;;;;;12.58;70.88;100770.52;107380;1243;113233;-71
2023/01/02 10:10:10;;;;;;;49.50;10.00;;;;;;;12.60;70.76;100779.21;107395;1230;100309;-72
2023/01/02 10:12:53;;;;;;;49.30;9.50;;;;;;;12.63;70.53;100774.54;107267;1243;140154;-72
2023/01/02 10:15:25;;;;;;;24.70;7.60;;;;;;;12.66;70.54;100773.11;107307;1237;97951;-73
2023/01/02 10:17:57;;;;;;;19.70;7.90;;;;;;;12.68;70.40;100763.00;107292;1233;139529;-74
2023/01/02 10:20:29;;;;;;;25.70;7.10;;;;;;;12.69;70.33;100754.36;107391;1236;113092;-72
2023/01/02 10:23:02;;;;;;;21.00;7.50;;;;;;;12.70;70.34;100757.56;107306;1237;139296;-73
2023/01/02 10:25:57;;;;;;;25.40;7.60;;;;;;;12.71;70.08;100751.92;107434;1234;107624;-72
2023/01/02 10:28:40;;;;;;;19.60;6.30;;;;;;;12.71;70.19;100748.34;107335;1235;99078;-73
2023/01/02 10:31:13;;;;;;;33.30;7.90;;;;;;;12.72;70.03;100744.35;107502;1237;99542;-73
2023/01/02 10:33:57;;;;;;;28.40;8.30;;;;;;;12.76;69.98;100737.73;107311;1237;113935;-73
2023/01/02 10:36:28;;;;;;;16.50;6.30;;;;;;;12.82;69.94;100736.83;107176;1247;139110;-73
2023/01/02 10:39:00;;;;;;;47.90;8.30;;;;;;;12.91;69.77;100739.60;107386;1251;108267;-73
2023/01/02 10:41:28;;;;;;;25.90;7.30;;;;;;;12.94;69.85;100730.67;107370;1235;138288;-73
2023/01/02 10:43:58;;;;;;;57.10;9.60;;;;;;;12.97;69.72;100734.46;107443;1229;98977;-73
2023/01/02 10:46:34;;;;;;;25.80;7.60;;;;;;;13.02;69.72;100738.46;107464;1231;113363;-74
2023/01/02 10:49:01;;;;;;;18.20;7.10;;;;;;;13.09;69.63;100740.27;107606;1229;99745;-73
2023/01/02 10:51:29;;;;;;;23.50;7.40;;;;;;;13.14;69.60;100736.23;107386;1243;100109;-73
2023/01/02 10:54:06;;;;;;;24.10;6.70;;;;;;;13.15;69.54;100739.92;107285;1243;139068;-74
2023/01/02 10:56:35;;;;;;;20.20;5.50;;;;;;;13.16;69.37;100739.20;107342;1229;97943;-73
2023/01/02 10:59:01;;;;;;;32.30;6.70;;;;;;;13.16;69.36;100734.16;107268;1229;139015;-75
2023/01/02 11:01:27;;;;;;;14.00;5.20;;;;;;;13.17;69.32;100726.78;107287;1244;99079;-75
2023/01/02 11:03:52;;;;;;;31.60;6.80;;;;;;;13.16;69.20;100716.02;107304;1238;98966;-74
2023/01/02 11:06:27;;;;;;;24.90;6.00;;;;;;;13.16;68.98;100717.80;107403;1235;139730;-74
2023/01/02 11:09:18;;;;;;;19.90;6.30;;;;;;;13.17;69.07;100713.85;107319;1229;112743;-73
2023/01/02 11:12:13;;;;;;;40.20;8.10;;;;;;;13.18;69.00;100717.41;107249;1249;138361;-73
2023/01/02 11:14:40;;;;;;;11.50;5.50;;;;;;;13.18;68.90;100718.46;107315;1235;107612;-72
2023/01/02 11:17:14;;;;;;;16.00;5.80;;;;;;;13.18;68.85;100714.34;107305;1245;138438;-73